createdAt,value
2023-05-10T00:00:31.963Z,5.23
2023-05-10T00:01:31.941Z,5.27
2023-05-10T00:02:32.137Z,5.22
2023-05-10T00:03:32.057Z,5.19
2023-05-10T00:04:31.912Z,5.20
2023-05-10T00:05:31.894Z,5.23
2023-05-10T00:06:31.881Z,5.25
2023-05-10T00:07:31.884Z,5.27
2023-05-10T00:08:31.897Z,5.35
2023-05-10T00:09:31.881Z,5.41
2023-05-10T00:10:31.896Z,5.45
2023-05-10T00:11:31.856Z,5.48
2023-05-10T00:12:31.821Z,5.46
2023-05-10T00:13:31.901Z,5.40
2023-05-10T00:14:32.003Z,5.34
2023-05-10T00:15:31.794Z,5.28
2023-05-10T00:16:31.831Z,5.19
2023-05-10T00:17:32.011Z,5.13
2023-05-10T00:18:31.759Z,5.09
2023-05-10T00:19:31.764Z,5.07
2023-05-10T00:20:31.791Z,5.10
2023-05-10T00:21:31.742Z,5.16
2023-05-10T00:22:31.741Z,5.19
2023-05-10T00:23:31.725Z,5.23
2023-05-10T00:24:31.723Z,5.27
2023-05-10T00:25:31.708Z,5.28
2023-05-10T00:26:31.736Z,5.31
2023-05-10T00:27:31.684Z,5.31
2023-05-10T00:28:31.668Z,5.31
2023-05-10T00:29:31.670Z,5.32
2023-05-10T00:30:31.653Z,5.31
2023-05-10T00:31:31.732Z,5.30
2023-05-10T00:32:31.806Z,5.30
2023-05-10T00:33:31.618Z,5.30
2023-05-10T00:34:31.616Z,5.31
2023-05-10T00:35:31.627Z,5.32
2023-05-10T00:36:31.594Z,5.34
2023-05-10T00:37:31.582Z,5.34
2023-05-10T00:38:31.610Z,5.34
2023-05-10T00:39:31.574Z,5.31
2023-05-10T00:40:31.548Z,5.27
2023-05-10T00:41:31.549Z,5.22
2023-05-10T00:42:31.533Z,5.12
2023-05-10T00:43:31.531Z,5.04
2023-05-10T00:44:31.531Z,4.89
2023-05-10T00:45:31.513Z,4.62
2023-05-10T00:46:31.572Z,4.50
2023-05-10T00:47:31.498Z,4.32
2023-05-10T00:48:31.472Z,4.15
2023-05-10T00:49:31.465Z,4.04
2023-05-10T00:50:31.491Z,3.90
2023-05-10T00:51:31.444Z,3.79
2023-05-10T00:52:31.431Z,3.72
2023-05-10T00:53:31.418Z,3.79
2023-05-10T00:54:31.402Z,3.86
2023-05-10T00:55:31.409Z,3.90
2023-05-10T00:56:31.419Z,3.94
2023-05-10T00:57:31.382Z,3.97
2023-05-10T00:58:31.362Z,3.86
2023-05-10T00:59:31.379Z,3.80
2023-05-10T01:00:31.360Z,3.83
2023-05-10T01:01:31.359Z,3.94
2023-05-10T01:02:31.421Z,3.96
2023-05-10T01:03:31.389Z,3.96
2023-05-10T01:04:31.358Z,3.94
2023-05-10T01:05:31.329Z,3.92
2023-05-10T01:06:31.299Z,3.92
2023-05-10T01:07:31.295Z,3.89
2023-05-10T01:08:31.310Z,3.90
2023-05-10T01:09:31.261Z,3.90
2023-05-10T01:10:31.250Z,3.86
2023-05-10T01:11:31.242Z,3.82
2023-05-10T01:12:31.296Z,3.82
2023-05-10T01:13:31.273Z,3.89
2023-05-10T01:14:31.230Z,3.88
2023-05-10T01:15:31.210Z,3.75
2023-05-10T01:16:31.205Z,3.71
2023-05-10T01:17:31.195Z,3.62
2023-05-10T01:18:31.175Z,3.58
2023-05-10T01:19:31.161Z,3.54
2023-05-10T01:20:31.180Z,3.52
2023-05-10T01:21:31.142Z,3.49
2023-05-10T01:22:31.125Z,3.53
2023-05-10T01:23:31.128Z,3.52
2023-05-10T01:24:31.095Z,3.50
2023-05-10T01:25:31.109Z,3.52
2023-05-10T01:26:31.142Z,3.49
2023-05-10T01:27:31.079Z,3.44
2023-05-10T01:28:31.122Z,3.47
2023-05-10T01:29:31.058Z,3.47
2023-05-10T01:30:31.041Z,3.42
2023-05-10T01:31:31.068Z,3.39
2023-05-10T01:32:31.080Z,3.46
2023-05-10T01:33:31.099Z,3.49
2023-05-10T01:34:31.004Z,3.40
2023-05-10T01:35:31.006Z,3.24
2023-05-10T01:36:30.984Z,3.21
2023-05-10T01:37:30.995Z,3.21
2023-05-10T01:38:30.990Z,3.30
2023-05-10T01:39:30.958Z,3.57
2023-05-10T01:40:30.950Z,3.62
2023-05-10T01:41:30.936Z,3.54
2023-05-10T01:42:30.942Z,3.47
2023-05-10T01:43:30.942Z,3.42
2023-05-10T01:44:30.934Z,3.57
2023-05-10T01:45:30.895Z,3.70
2023-05-10T01:46:30.945Z,3.71
2023-05-10T01:47:30.975Z,3.67
2023-05-10T01:48:30.868Z,3.52
2023-05-10T01:49:30.853Z,3.34
2023-05-10T01:50:30.875Z,3.27
2023-05-10T01:51:30.836Z,3.24
2023-05-10T01:52:30.822Z,3.20
2023-05-10T01:53:30.815Z,3.13
2023-05-10T01:54:30.811Z,3.20
2023-05-10T01:55:30.808Z,3.02
2023-05-10T01:56:30.817Z,2.89
2023-05-10T01:57:30.736Z,2.87
2023-05-10T01:58:30.716Z,2.94
2023-05-10T01:59:30.701Z,2.95
2023-05-10T02:00:30.789Z,3.03
2023-05-10T02:01:30.737Z,2.95
2023-05-10T02:02:30.787Z,2.95
2023-05-10T02:03:30.734Z,3.03
2023-05-10T02:04:30.721Z,3.06
2023-05-10T02:05:30.668Z,3.13
2023-05-10T02:06:30.626Z,3.20
2023-05-10T02:07:30.623Z,3.12
2023-05-10T02:08:30.646Z,3.13
2023-05-10T02:09:30.656Z,2.98
2023-05-10T02:10:30.655Z,2.85
2023-05-10T02:11:30.586Z,2.89
2023-05-10T02:12:30.567Z,2.92
2023-05-10T02:13:30.665Z,2.89
2023-05-10T02:14:30.584Z,2.79
2023-05-10T02:15:30.532Z,2.64
2023-05-10T02:16:30.557Z,2.56
2023-05-10T02:17:30.529Z,2.48
2023-05-10T02:18:30.512Z,2.58
2023-05-10T02:19:30.500Z,2.55
2023-05-10T02:20:30.527Z,2.64
2023-05-10T02:21:30.493Z,2.55
2023-05-10T02:22:30.469Z,2.49
2023-05-10T02:23:30.474Z,2.48
2023-05-10T02:24:30.464Z,2.48
2023-05-10T02:25:30.452Z,2.41
2023-05-10T02:26:30.486Z,2.45
2023-05-10T02:27:30.437Z,2.48
2023-05-10T02:28:30.414Z,2.53
2023-05-10T02:29:30.402Z,2.52
2023-05-10T02:30:30.392Z,2.38
2023-05-10T02:31:30.391Z,2.35
2023-05-10T02:32:30.405Z,2.46
2023-05-10T02:33:30.367Z,2.55
2023-05-10T02:34:30.349Z,2.56
2023-05-10T02:35:30.349Z,2.53
2023-05-10T02:36:30.334Z,2.38
2023-05-10T02:37:30.316Z,2.33
2023-05-10T02:38:30.343Z,2.34
2023-05-10T02:39:30.306Z,2.40
2023-05-10T02:40:30.287Z,2.41
2023-05-10T02:41:30.273Z,2.44
2023-05-10T02:42:30.263Z,2.53
2023-05-10T02:43:30.262Z,2.53
2023-05-10T02:44:30.266Z,2.49
2023-05-10T02:45:30.234Z,2.51
2023-05-10T02:46:30.297Z,2.56
2023-05-10T02:47:30.262Z,2.63
2023-05-10T02:48:30.227Z,2.66
2023-05-10T02:49:30.217Z,2.66
2023-05-10T02:50:30.229Z,2.66
2023-05-10T02:51:30.212Z,2.66
2023-05-10T02:52:30.212Z,2.70
2023-05-10T02:53:30.191Z,2.70
2023-05-10T02:54:30.141Z,2.69
2023-05-10T02:55:30.152Z,2.67
2023-05-10T02:56:30.152Z,2.56
2023-05-10T02:57:30.145Z,2.27
2023-05-10T02:58:30.105Z,2.08
2023-05-10T02:59:30.108Z,2.02
2023-05-10T03:00:30.090Z,1.91
2023-05-10T03:01:30.134Z,1.89
2023-05-10T03:02:30.122Z,1.87
2023-05-10T03:03:30.058Z,1.90
2023-05-10T03:04:30.119Z,1.99
2023-05-10T03:05:30.047Z,2.04
2023-05-10T03:06:30.022Z,2.37
2023-05-10T03:07:30.025Z,2.46
2023-05-10T03:08:30.051Z,2.38
2023-05-10T03:09:29.999Z,2.37
2023-05-10T03:10:29.982Z,2.26
2023-05-10T03:11:29.998Z,2.23
2023-05-10T03:12:29.974Z,2.23
2023-05-10T03:13:30.000Z,2.27
2023-05-10T03:14:29.977Z,2.30
2023-05-10T03:15:29.961Z,2.40
2023-05-10T03:16:30.004Z,2.44
2023-05-10T03:17:29.941Z,2.49
2023-05-10T03:18:29.911Z,2.55
2023-05-10T03:19:29.910Z,2.56
2023-05-10T03:20:29.918Z,2.55
2023-05-10T03:21:29.872Z,2.56
2023-05-10T03:22:29.857Z,2.58
2023-05-10T03:23:29.859Z,2.59
2023-05-10T03:24:29.842Z,2.63
2023-05-10T03:25:29.834Z,2.61
2023-05-10T03:26:29.850Z,2.66
2023-05-10T03:27:29.817Z,2.63
2023-05-10T03:28:29.809Z,2.59
2023-05-10T03:29:29.793Z,2.59
2023-05-10T03:30:29.778Z,2.59
2023-05-10T03:31:29.836Z,2.56
2023-05-10T03:32:29.836Z,2.55
2023-05-10T03:33:29.754Z,2.55
2023-05-10T03:34:29.746Z,2.51
2023-05-10T03:35:29.734Z,2.52
2023-05-10T03:36:29.738Z,2.53
2023-05-10T03:37:29.715Z,2.56
2023-05-10T03:38:30.663Z,2.63
2023-05-10T03:39:29.693Z,2.64
2023-05-10T03:40:29.680Z,2.67
2023-05-10T03:41:29.691Z,2.67
2023-05-10T03:42:29.654Z,2.66
2023-05-10T03:43:29.662Z,2.63
2023-05-10T03:44:29.678Z,2.64
2023-05-10T03:45:29.649Z,2.64
2023-05-10T03:46:29.666Z,2.59
2023-05-10T03:47:29.653Z,2.61
2023-05-10T03:48:29.601Z,2.63
2023-05-10T03:49:29.600Z,2.66
2023-05-10T03:50:29.631Z,2.66
2023-05-10T03:51:29.566Z,2.70
2023-05-10T03:52:29.569Z,2.73
2023-05-10T03:53:29.547Z,2.76
2023-05-10T03:54:29.536Z,2.79
2023-05-10T03:55:29.538Z,2.84
2023-05-10T03:56:29.544Z,2.85
2023-05-10T03:57:29.509Z,2.85
2023-05-10T03:58:29.500Z,2.87
2023-05-10T03:59:29.491Z,2.88
2023-05-10T04:00:29.475Z,2.92
2023-05-10T04:01:29.471Z,2.94
2023-05-10T04:02:29.561Z,2.97
2023-05-10T04:03:29.512Z,2.92
2023-05-10T04:04:29.434Z,2.95
2023-05-10T04:05:29.432Z,2.94
2023-05-10T04:06:29.463Z,2.94
2023-05-10T04:07:29.405Z,2.95
2023-05-10T04:08:29.426Z,3.00
2023-05-10T04:09:29.381Z,3.06
2023-05-10T04:10:29.376Z,3.02
2023-05-10T04:11:29.369Z,2.97
2023-05-10T04:12:29.354Z,3.00
2023-05-10T04:13:29.394Z,3.03
2023-05-10T04:14:29.362Z,3.06
2023-05-10T04:15:29.322Z,3.10
2023-05-10T04:16:29.340Z,3.12
2023-05-10T04:17:29.325Z,3.16
2023-05-10T04:18:29.292Z,3.24
2023-05-10T04:19:29.525Z,3.28
2023-05-10T04:20:29.324Z,3.30
2023-05-10T04:21:29.266Z,3.27
2023-05-10T04:22:29.268Z,3.30
2023-05-10T04:23:29.255Z,3.39
2023-05-10T04:24:29.235Z,3.44
2023-05-10T04:25:29.222Z,3.49
2023-05-10T04:26:29.245Z,3.52
2023-05-10T04:27:29.216Z,3.57
2023-05-10T04:28:29.215Z,3.58
2023-05-10T04:29:29.182Z,3.60
2023-05-10T04:30:29.170Z,3.61
2023-05-10T04:31:29.221Z,3.61
2023-05-10T04:32:29.240Z,3.58
2023-05-10T04:33:29.156Z,3.61
2023-05-10T04:34:29.137Z,3.64
2023-05-10T04:35:29.131Z,3.64
2023-05-10T04:36:29.123Z,3.67
2023-05-10T04:37:29.116Z,3.70
2023-05-10T04:38:29.135Z,3.71
2023-05-10T04:39:29.080Z,3.78
2023-05-10T04:40:29.076Z,3.78
2023-05-10T04:41:29.058Z,3.80
2023-05-10T04:42:29.049Z,3.89
2023-05-10T04:43:29.033Z,4.00
2023-05-10T04:44:29.054Z,4.10
2023-05-10T04:45:29.019Z,4.19
2023-05-10T04:46:29.076Z,4.32
2023-05-10T04:47:29.016Z,4.39
2023-05-10T04:48:28.993Z,4.42
2023-05-10T04:49:28.976Z,4.46
2023-05-10T04:50:28.995Z,4.58
2023-05-10T04:51:28.959Z,4.64
2023-05-10T04:52:28.950Z,4.72
2023-05-10T04:53:28.946Z,4.77
2023-05-10T04:54:28.925Z,4.83
2023-05-10T04:55:28.919Z,4.95
2023-05-10T04:56:29.022Z,5.04
2023-05-10T04:57:28.909Z,5.09
2023-05-10T04:58:28.891Z,5.12
2023-05-10T04:59:28.888Z,5.14
2023-05-10T05:00:28.868Z,5.22
2023-05-10T05:01:28.953Z,5.28
2023-05-10T05:02:29.021Z,5.35
2023-05-10T05:03:28.894Z,5.40
2023-05-10T05:04:28.846Z,5.49
2023-05-10T05:05:28.813Z,5.60
2023-05-10T05:06:28.813Z,5.71
2023-05-10T05:07:28.798Z,5.83
2023-05-10T05:08:28.816Z,5.96
2023-05-10T05:09:28.795Z,6.13
2023-05-10T05:10:28.775Z,6.33
2023-05-10T05:11:28.758Z,6.58
2023-05-10T05:12:28.756Z,6.76
2023-05-10T05:13:28.819Z,6.90
2023-05-10T05:14:28.776Z,6.99
2023-05-10T05:15:28.726Z,7.01
2023-05-10T05:16:28.765Z,7.15
2023-05-10T05:17:28.735Z,7.31
2023-05-10T05:18:28.688Z,7.45
2023-05-10T05:19:28.674Z,7.66
2023-05-10T05:20:28.697Z,7.79
2023-05-10T05:21:28.654Z,7.93
2023-05-10T05:22:28.659Z,8.14
2023-05-10T05:23:28.630Z,8.26
2023-05-10T05:24:28.624Z,8.45
2023-05-10T05:25:28.615Z,8.62
2023-05-10T05:26:28.635Z,8.86
2023-05-10T05:27:28.604Z,9.13
2023-05-10T05:28:28.600Z,9.38
2023-05-10T05:29:28.567Z,9.48
2023-05-10T05:30:28.562Z,9.67
2023-05-10T05:31:28.605Z,9.86
2023-05-10T05:32:28.791Z,10.06
2023-05-10T05:33:28.540Z,10.24
2023-05-10T05:34:28.531Z,10.34
2023-05-10T05:35:28.501Z,10.46
2023-05-10T05:36:28.495Z,10.73
2023-05-10T05:37:28.488Z,10.88
2023-05-10T05:38:28.522Z,11.01
2023-05-10T05:39:28.471Z,10.91
2023-05-10T05:40:28.466Z,10.96
2023-05-10T05:41:28.444Z,11.16
2023-05-10T05:42:28.443Z,11.34
2023-05-10T05:43:28.450Z,11.43
2023-05-10T05:44:28.449Z,11.57
2023-05-10T05:45:28.408Z,11.68
2023-05-10T05:46:28.436Z,11.86
2023-05-10T05:47:28.408Z,11.89
2023-05-10T05:48:28.375Z,12.04
2023-05-10T05:49:28.365Z,12.15
2023-05-10T05:50:28.393Z,12.29
2023-05-10T05:51:28.352Z,12.42
2023-05-10T05:52:28.343Z,12.54
2023-05-10T05:53:28.358Z,12.63
2023-05-10T05:54:28.343Z,12.71
2023-05-10T05:55:28.305Z,12.87
2023-05-10T05:56:28.322Z,12.89
2023-05-10T05:57:28.286Z,12.87
2023-05-10T05:58:28.344Z,12.84
2023-05-10T05:59:28.262Z,12.89
2023-05-10T06:00:28.306Z,12.97
2023-05-10T06:01:28.229Z,13.02
2023-05-10T06:02:28.318Z,13.04
2023-05-10T06:03:28.327Z,13.11
2023-05-10T06:04:28.288Z,13.21
2023-05-10T06:05:28.197Z,13.30
2023-05-10T06:06:28.194Z,13.40
2023-05-10T06:07:28.170Z,13.49
2023-05-10T06:08:28.196Z,13.52
2023-05-10T06:09:28.172Z,13.55
2023-05-10T06:10:28.209Z,13.59
2023-05-10T06:11:28.138Z,13.65
2023-05-10T06:12:28.122Z,13.67
2023-05-10T06:13:28.206Z,13.73
2023-05-10T06:14:28.143Z,13.73
2023-05-10T06:15:28.115Z,13.79
2023-05-10T06:16:28.145Z,13.81
2023-05-10T06:17:29.898Z,13.81
2023-05-10T06:18:28.078Z,13.84
2023-05-10T06:19:28.054Z,13.81
2023-05-10T06:20:28.134Z,13.79
2023-05-10T06:21:28.040Z,13.70
2023-05-10T06:22:28.039Z,13.79
2023-05-10T06:23:28.045Z,13.84
2023-05-10T06:24:28.013Z,13.94
2023-05-10T06:25:27.992Z,13.98
2023-05-10T06:26:28.008Z,13.94
2023-05-10T06:27:27.976Z,13.96
2023-05-10T06:28:27.994Z,13.96
2023-05-10T06:29:27.969Z,13.98
2023-05-10T06:30:27.959Z,14.01
2023-05-10T06:31:27.952Z,14.07
2023-05-10T06:32:27.980Z,14.13
2023-05-10T06:33:27.918Z,14.24
2023-05-10T06:34:27.917Z,14.25
2023-05-10T06:35:27.909Z,14.28
2023-05-10T06:36:27.888Z,14.42
2023-05-10T06:37:27.867Z,14.47
2023-05-10T06:38:27.872Z,14.57
2023-05-10T06:39:27.861Z,14.65
2023-05-10T06:40:27.837Z,14.75
2023-05-10T06:41:27.835Z,14.84
2023-05-10T06:42:27.814Z,14.93
2023-05-10T06:43:27.797Z,14.93
2023-05-10T06:44:27.810Z,15.01
2023-05-10T06:45:27.791Z,15.03
2023-05-10T06:46:27.811Z,15.12
2023-05-10T06:47:27.845Z,15.23
2023-05-10T06:48:27.751Z,15.23
2023-05-10T06:49:27.775Z,15.21
2023-05-10T06:50:27.762Z,15.39
2023-05-10T06:51:27.725Z,15.56
2023-05-10T06:52:27.711Z,15.60
2023-05-10T06:53:27.698Z,15.74
2023-05-10T06:54:27.702Z,15.92
2023-05-10T06:55:27.675Z,16.03
2023-05-10T06:56:27.694Z,16.18
2023-05-10T06:57:31.712Z,16.33
2023-05-10T06:58:27.644Z,16.45
2023-05-10T06:59:27.687Z,16.41
2023-05-10T07:00:27.654Z,16.49
2023-05-10T07:01:27.639Z,16.56
2023-05-10T07:02:27.794Z,16.67
2023-05-10T07:03:27.604Z,16.78
2023-05-10T07:04:27.655Z,16.78
2023-05-10T07:05:27.610Z,16.92
2023-05-10T07:06:33.555Z,16.99
2023-05-10T07:07:28.593Z,17.03
2023-05-10T07:08:27.553Z,17.08
2023-05-10T07:09:27.536Z,17.26
2023-05-10T07:10:27.536Z,17.41
2023-05-10T07:11:27.519Z,17.55
2023-05-10T07:12:27.551Z,17.74
2023-05-10T07:13:27.569Z,17.88
2023-05-10T07:14:27.503Z,18.00
2023-05-10T07:15:27.494Z,18.18
2023-05-10T07:16:27.499Z,18.37
2023-05-10T07:17:27.593Z,18.36
2023-05-10T07:18:27.556Z,18.19
2023-05-10T07:19:27.462Z,18.31
2023-05-10T07:20:27.422Z,18.42
2023-05-10T07:21:27.492Z,18.54
2023-05-10T07:22:27.401Z,18.68
2023-05-10T07:23:27.412Z,18.77
2023-05-10T07:24:27.395Z,18.90
2023-05-10T07:25:27.439Z,18.82
2023-05-10T07:26:27.359Z,18.77
2023-05-10T07:27:27.349Z,18.83
2023-05-10T07:28:27.337Z,18.91
2023-05-10T07:29:27.341Z,19.05
2023-05-10T07:30:27.352Z,19.20
2023-05-10T07:31:27.323Z,19.32
2023-05-10T07:32:27.368Z,19.47
2023-05-10T07:33:27.296Z,19.53
2023-05-10T07:34:27.273Z,19.63
2023-05-10T07:35:27.269Z,19.79
2023-05-10T07:36:27.285Z,19.68
2023-05-10T07:37:27.265Z,19.40
2023-05-10T07:38:27.237Z,19.42
2023-05-10T07:39:28.211Z,19.60
2023-05-10T07:40:27.232Z,19.75
2023-05-10T07:41:27.206Z,19.94
2023-05-10T07:42:27.196Z,20.12
2023-05-10T07:43:27.203Z,20.21
2023-05-10T07:44:27.176Z,20.08
2023-05-10T07:45:27.206Z,20.27
2023-05-10T07:46:27.239Z,20.46
2023-05-10T07:47:27.211Z,20.33
2023-05-10T07:48:27.168Z,20.39
2023-05-10T07:49:27.151Z,20.34
2023-05-10T07:50:27.107Z,20.56
2023-05-10T07:51:27.102Z,20.69
2023-05-10T07:52:27.127Z,20.89
2023-05-10T07:53:27.081Z,21.02
2023-05-10T07:54:27.092Z,21.17
2023-05-10T07:55:27.083Z,21.34
2023-05-10T07:56:27.069Z,21.39
2023-05-10T07:57:27.039Z,21.42
2023-05-10T07:58:27.029Z,21.54
2023-05-10T07:59:27.030Z,21.72
2023-05-10T08:00:27.027Z,21.81
2023-05-10T08:01:27.012Z,21.79
2023-05-10T08:02:27.068Z,21.94
2023-05-10T08:03:27.075Z,22.01
2023-05-10T08:04:27.001Z,22.07
2023-05-10T08:05:26.945Z,22.09
2023-05-10T08:06:26.948Z,22.10
2023-05-10T08:07:26.951Z,22.10
2023-05-10T08:08:26.917Z,21.83
2023-05-10T08:09:26.926Z,21.91
2023-05-10T08:10:26.901Z,22.09
2023-05-10T08:11:26.889Z,22.13
2023-05-10T08:12:26.890Z,22.27
2023-05-10T08:13:26.894Z,22.27
2023-05-10T08:14:26.862Z,22.28
2023-05-10T08:15:26.843Z,22.34
2023-05-10T08:16:26.859Z,22.39
2023-05-10T08:17:26.861Z,22.46
2023-05-10T08:18:26.850Z,22.53
2023-05-10T08:19:26.832Z,22.67
2023-05-10T08:20:26.805Z,22.65
2023-05-10T08:21:26.791Z,22.29
2023-05-10T08:22:26.789Z,21.72
2023-05-10T08:23:26.770Z,21.45
2023-05-10T08:24:26.765Z,21.56
2023-05-10T08:25:26.767Z,21.83
2023-05-10T08:26:26.747Z,22.10
2023-05-10T08:27:26.749Z,22.22
2023-05-10T08:28:26.714Z,22.07
2023-05-10T08:29:28.349Z,21.94
2023-05-10T08:30:26.701Z,22.07
2023-05-10T08:31:27.260Z,21.99
2023-05-10T08:32:26.779Z,22.22
2023-05-10T08:33:26.720Z,22.10
2023-05-10T08:34:26.810Z,21.99
2023-05-10T08:35:26.652Z,21.59
2023-05-10T08:36:26.635Z,21.75
2023-05-10T08:37:26.668Z,21.99
2023-05-10T08:38:26.606Z,22.12
2023-05-10T08:39:30.410Z,22.38
2023-05-10T08:40:26.602Z,22.50
2023-05-10T08:41:26.580Z,22.47
2023-05-10T08:42:26.576Z,22.44
2023-05-10T08:43:26.611Z,22.59
2023-05-10T08:44:26.552Z,22.68
2023-05-10T08:45:26.539Z,22.72
2023-05-10T08:46:26.573Z,22.90
2023-05-10T08:47:26.645Z,22.94
2023-05-10T08:48:26.558Z,23.12
2023-05-10T08:49:26.528Z,23.32
2023-05-10T08:50:26.480Z,22.90
2023-05-10T08:51:26.481Z,23.07
2023-05-10T08:52:26.464Z,23.17
2023-05-10T08:53:26.449Z,23.29
2023-05-10T08:54:26.448Z,23.49
2023-05-10T08:55:26.468Z,23.43
2023-05-10T08:56:26.418Z,23.70
2023-05-10T08:57:26.426Z,23.98
2023-05-10T08:58:26.398Z,24.05
2023-05-10T08:59:26.432Z,24.22
2023-05-10T09:00:26.411Z,24.31
2023-05-10T09:01:26.420Z,24.42
2023-05-10T09:02:26.443Z,24.42
2023-05-10T09:03:26.356Z,24.54
2023-05-10T09:04:26.498Z,24.64
2023-05-10T09:05:26.370Z,24.73
2023-05-10T09:06:26.326Z,24.71
2023-05-10T09:07:26.349Z,24.67
2023-05-10T09:08:26.297Z,24.47
2023-05-10T09:09:26.314Z,24.52
2023-05-10T09:10:26.285Z,24.49
2023-05-10T09:11:26.272Z,24.41
2023-05-10T09:12:26.277Z,24.49
2023-05-10T09:13:26.270Z,24.35
2023-05-10T09:14:26.240Z,24.35
2023-05-10T09:15:26.262Z,24.45
2023-05-10T09:16:26.254Z,24.59
2023-05-10T09:17:26.296Z,24.08
2023-05-10T09:18:28.037Z,24.14
2023-05-10T09:19:26.225Z,23.86
2023-05-10T09:20:26.182Z,23.72
2023-05-10T09:21:26.202Z,23.85
2023-05-10T09:22:26.153Z,24.02
2023-05-10T09:23:26.156Z,24.12
2023-05-10T09:24:26.127Z,24.02
2023-05-10T09:25:26.173Z,24.14
2023-05-10T09:26:26.108Z,24.22
2023-05-10T09:27:26.099Z,24.20
2023-05-10T09:28:26.123Z,24.22
2023-05-10T09:29:26.082Z,24.16
2023-05-10T09:30:26.073Z,23.64
2023-05-10T09:31:26.290Z,23.50
2023-05-10T09:32:26.086Z,23.12
2023-05-10T09:33:26.049Z,22.93
2023-05-10T09:34:26.029Z,22.96
2023-05-10T09:35:28.030Z,22.77
2023-05-10T09:36:26.007Z,22.71
2023-05-10T09:37:26.065Z,22.77
2023-05-10T09:38:25.988Z,22.65
2023-05-10T09:39:25.979Z,22.50
2023-05-10T09:40:25.972Z,22.62
2023-05-10T09:41:25.981Z,22.77
2023-05-10T09:42:25.959Z,22.87
2023-05-10T09:43:25.963Z,22.83
2023-05-10T09:44:25.933Z,22.83
2023-05-10T09:45:25.925Z,22.78
2023-05-10T09:46:25.938Z,22.78
2023-05-10T09:47:25.965Z,22.77
2023-05-10T09:48:25.906Z,23.01
2023-05-10T09:49:25.910Z,23.12
2023-05-10T09:50:25.870Z,23.07
2023-05-10T09:51:25.873Z,22.90
2023-05-10T09:52:25.848Z,22.77
2023-05-10T09:53:25.852Z,22.99
2023-05-10T09:54:25.830Z,22.96
2023-05-10T09:55:25.849Z,23.05
2023-05-10T09:56:25.807Z,23.02
2023-05-10T09:57:25.818Z,22.87
2023-05-10T09:58:25.802Z,23.04
2023-05-10T09:59:25.779Z,23.14
2023-05-10T10:00:25.773Z,23.26
2023-05-10T10:01:25.845Z,23.45
2023-05-10T10:02:25.782Z,23.35
2023-05-10T10:03:26.065Z,22.84
2023-05-10T10:04:25.764Z,22.99
2023-05-10T10:05:25.751Z,23.02
2023-05-10T10:06:30.175Z,23.14
2023-05-10T10:07:26.734Z,23.32
2023-05-10T10:08:25.697Z,23.55
2023-05-10T10:09:25.692Z,23.77
2023-05-10T10:10:25.678Z,24.05
2023-05-10T10:11:25.669Z,24.26
2023-05-10T10:12:25.660Z,24.42
2023-05-10T10:13:25.666Z,24.59
2023-05-10T10:14:25.625Z,24.73
2023-05-10T10:15:25.626Z,24.75
2023-05-10T10:16:25.723Z,24.76
2023-05-10T10:17:25.639Z,24.91
2023-05-10T10:18:25.615Z,25.05
2023-05-10T10:19:26.352Z,24.97
2023-05-10T10:20:25.583Z,24.94
2023-05-10T10:21:25.566Z,24.82
2023-05-10T10:22:25.555Z,24.82
2023-05-10T10:23:25.554Z,24.57
2023-05-10T10:24:25.533Z,24.50
2023-05-10T10:25:25.554Z,24.53
2023-05-10T10:26:25.522Z,24.16
2023-05-10T10:27:25.504Z,23.58
2023-05-10T10:28:28.060Z,22.86
2023-05-10T10:29:25.483Z,22.37
2023-05-10T10:30:25.481Z,22.50
2023-05-10T10:31:25.552Z,22.83
2023-05-10T10:32:25.510Z,23.19
2023-05-10T10:33:28.832Z,23.60
2023-05-10T10:34:25.435Z,23.86
2023-05-10T10:35:25.425Z,23.94
2023-05-10T10:36:25.401Z,23.95
2023-05-10T10:37:26.358Z,24.02
2023-05-10T10:38:25.396Z,23.85
2023-05-10T10:39:25.377Z,23.82
2023-05-10T10:40:25.350Z,24.07
2023-05-10T10:41:25.350Z,24.35
2023-05-10T10:42:25.334Z,24.52
2023-05-10T10:43:25.455Z,24.71
2023-05-10T10:44:25.310Z,24.87
2023-05-10T10:45:25.306Z,24.98
2023-05-10T10:46:25.306Z,25.07
2023-05-10T10:47:25.365Z,25.16
2023-05-10T10:48:25.262Z,24.80
2023-05-10T10:49:25.282Z,24.76
2023-05-10T10:50:25.255Z,24.88
2023-05-10T10:51:25.233Z,24.95
2023-05-10T10:52:25.225Z,25.02
2023-05-10T10:53:25.238Z,25.12
2023-05-10T10:54:25.220Z,25.19
2023-05-10T10:55:25.246Z,25.38
2023-05-10T10:56:25.254Z,25.56
2023-05-10T10:57:25.187Z,25.50
2023-05-10T10:58:25.177Z,25.47
2023-05-10T10:59:25.160Z,25.54
2023-05-10T11:00:25.180Z,25.50
2023-05-10T11:01:25.229Z,25.53
2023-05-10T11:02:25.186Z,25.46
2023-05-10T11:03:25.130Z,25.42
2023-05-10T11:04:25.132Z,25.39
2023-05-10T11:05:25.127Z,25.38
2023-05-10T11:06:25.101Z,25.44
2023-05-10T11:07:25.106Z,25.39
2023-05-10T11:08:25.084Z,25.56
2023-05-10T11:09:25.069Z,25.56
2023-05-10T11:10:25.072Z,25.77
2023-05-10T11:11:25.039Z,25.91
2023-05-10T11:12:25.037Z,25.97
2023-05-10T11:13:25.057Z,25.98
2023-05-10T11:14:25.017Z,26.05
2023-05-10T11:15:25.016Z,25.98
2023-05-10T11:16:25.188Z,25.83
2023-05-10T11:17:25.115Z,25.77
2023-05-10T11:18:25.001Z,25.62
2023-05-10T11:19:24.986Z,25.59
2023-05-10T11:20:24.958Z,25.50
2023-05-10T11:21:24.939Z,24.67
2023-05-10T11:22:24.927Z,24.41
2023-05-10T11:23:24.917Z,24.41
2023-05-10T11:24:24.907Z,24.50
2023-05-10T11:25:24.930Z,24.59
2023-05-10T11:26:24.887Z,24.83
2023-05-10T11:27:24.880Z,24.90
2023-05-10T11:28:24.869Z,25.02
2023-05-10T11:29:24.867Z,25.05
2023-05-10T11:30:24.871Z,25.02
2023-05-10T11:31:25.068Z,25.05
2023-05-10T11:32:24.837Z,24.91
2023-05-10T11:33:24.818Z,24.97
2023-05-10T11:34:24.805Z,25.12
2023-05-10T11:35:24.795Z,25.37
2023-05-10T11:36:24.781Z,25.42
2023-05-10T11:37:24.789Z,25.52
2023-05-10T11:38:24.767Z,25.57
2023-05-10T11:39:24.761Z,25.61
2023-05-10T11:40:24.755Z,25.62
2023-05-10T11:41:24.759Z,25.61
2023-05-10T11:42:24.729Z,25.67
2023-05-10T11:43:24.804Z,25.68
2023-05-10T11:44:24.721Z,25.64
2023-05-10T11:45:24.708Z,25.57
2023-05-10T11:46:24.722Z,25.65
2023-05-10T11:47:24.688Z,25.67
2023-05-10T11:48:24.709Z,25.80
2023-05-10T11:49:24.698Z,25.77
2023-05-10T11:50:24.650Z,25.79
2023-05-10T11:51:24.658Z,25.77
2023-05-10T11:52:24.642Z,25.65
2023-05-10T11:53:25.940Z,25.50
2023-05-10T11:54:24.617Z,25.47
2023-05-10T11:55:24.657Z,25.49
2023-05-10T11:56:24.714Z,25.46
2023-05-10T11:57:24.587Z,25.34
2023-05-10T11:58:24.579Z,25.19
2023-05-10T11:59:24.561Z,25.19
2023-05-10T12:00:24.553Z,25.24
2023-05-10T12:01:24.576Z,25.24
2023-05-10T12:02:24.660Z,25.31
2023-05-10T12:03:24.653Z,25.27
2023-05-10T12:04:24.523Z,25.20
2023-05-10T12:05:24.508Z,25.30
2023-05-10T12:06:24.488Z,25.50
2023-05-10T12:07:24.523Z,25.67
2023-05-10T12:08:24.469Z,25.75
2023-05-10T12:10:24.451Z,25.99
2023-05-10T12:11:24.440Z,26.11
2023-05-10T12:12:24.428Z,26.18
2023-05-10T12:13:24.445Z,26.02
2023-05-10T12:14:24.400Z,25.93
2023-05-10T12:15:24.450Z,25.90
2023-05-10T12:16:24.436Z,25.67
2023-05-10T12:17:24.468Z,25.64
2023-05-10T12:18:24.440Z,25.65
2023-05-10T12:19:24.392Z,25.64
2023-05-10T12:20:24.365Z,25.28
2023-05-10T12:21:24.351Z,25.39
2023-05-10T12:22:24.347Z,25.38
2023-05-10T12:23:24.325Z,25.56
2023-05-10T12:24:24.336Z,25.68
2023-05-10T12:25:24.332Z,25.57
2023-05-10T12:26:24.310Z,25.52
2023-05-10T12:27:24.286Z,25.54
2023-05-10T12:28:24.274Z,25.74
2023-05-10T12:29:24.264Z,25.69
2023-05-10T12:30:24.257Z,25.72
2023-05-10T12:31:24.664Z,25.75
2023-05-10T12:32:24.304Z,25.77
2023-05-10T12:33:24.231Z,25.64
2023-05-10T12:34:24.228Z,25.65
2023-05-10T12:35:24.210Z,25.82
2023-05-10T12:36:24.199Z,25.90
2023-05-10T12:37:24.218Z,25.94
2023-05-10T12:38:24.195Z,25.98
2023-05-10T12:39:24.171Z,25.98
2023-05-10T12:40:24.163Z,26.12
2023-05-10T12:41:24.165Z,26.08
2023-05-10T12:42:24.127Z,26.05
2023-05-10T12:43:24.152Z,26.06
2023-05-10T12:44:24.127Z,26.12
2023-05-10T12:45:24.174Z,26.22
2023-05-10T12:46:24.208Z,26.42
2023-05-10T12:47:24.101Z,26.61
2023-05-10T12:48:24.139Z,26.77
2023-05-10T12:49:24.131Z,26.73
2023-05-10T12:50:24.050Z,26.68
2023-05-10T12:51:24.044Z,26.57
2023-05-10T12:52:24.034Z,26.65
2023-05-10T12:53:24.068Z,26.69
2023-05-10T12:54:24.018Z,26.68
2023-05-10T12:55:24.017Z,26.77
2023-05-10T12:56:24.006Z,26.92
2023-05-10T12:57:23.979Z,26.89
2023-05-10T12:58:34.851Z,26.89
2023-05-10T12:59:24.961Z,26.95
2023-05-10T13:00:23.960Z,26.99
2023-05-10T13:01:24.003Z,27.06
2023-05-10T13:02:23.969Z,27.19
2023-05-10T13:03:23.921Z,27.16
2023-05-10T13:04:23.939Z,27.16